createdAt,value
2023-02-02T00:00:20.624Z,17.60
2023-02-02T00:01:21.219Z,17.60
2023-02-02T00:02:21.897Z,17.57
2023-02-02T00:03:22.497Z,17.60
2023-02-02T00:04:23.098Z,17.63
2023-02-02T00:05:24.829Z,17.52
2023-02-02T00:06:25.632Z,17.52
2023-02-02T00:07:26.207Z,17.52
2023-02-02T00:08:26.798Z,17.51
2023-02-02T00:09:27.392Z,17.49
2023-02-02T00:10:28.143Z,17.49
2023-02-02T00:11:28.740Z,17.48
2023-02-02T00:12:29.338Z,17.51
2023-02-02T00:13:30.741Z,17.46
2023-02-02T00:14:31.333Z,17.45
2023-02-02T00:15:32.787Z,17.51
2023-02-02T00:16:33.420Z,17.49
2023-02-02T00:17:34.089Z,17.44
2023-02-02T00:18:34.689Z,17.44
2023-02-02T00:19:35.273Z,17.48
2023-02-02T00:20:35.865Z,17.45
2023-02-02T00:21:57.042Z,17.44
2023-02-02T00:23:14.212Z,17.46
2023-02-02T00:24:14.807Z,17.46
2023-02-02T00:25:15.474Z,17.44
2023-02-02T00:26:16.235Z,17.42
2023-02-02T00:27:16.869Z,17.44
2023-02-02T00:28:17.462Z,17.46
2023-02-02T00:29:18.066Z,17.48
2023-02-02T00:31:20.269Z,17.34
2023-02-02T00:32:21.043Z,17.33
2023-02-02T00:33:38.198Z,17.36
2023-02-02T00:34:38.953Z,17.29
2023-02-02T00:35:39.558Z,17.29
2023-02-02T00:36:40.142Z,17.31
2023-02-02T00:37:40.847Z,17.29
2023-02-02T00:38:41.448Z,17.31
2023-02-02T00:39:42.044Z,17.33
2023-02-02T00:40:43.496Z,17.33
2023-02-02T00:41:44.102Z,17.23
2023-02-02T00:42:44.776Z,17.27
2023-02-02T00:43:45.381Z,17.23
2023-02-02T00:44:46.110Z,17.24
2023-02-02T00:45:46.809Z,17.26
2023-02-02T00:46:47.407Z,17.24
2023-02-02T00:47:48.017Z,17.24
2023-02-02T00:48:48.593Z,17.24
2023-02-02T00:49:49.187Z,17.23
2023-02-02T00:50:49.788Z,17.16
2023-02-02T00:51:50.448Z,17.20
2023-02-02T00:52:51.051Z,17.23
2023-02-02T00:53:51.634Z,17.22
2023-02-02T00:54:52.244Z,17.14
2023-02-02T00:55:52.881Z,17.24
2023-02-02T00:56:53.478Z,17.20
2023-02-02T00:57:54.080Z,17.22
2023-02-02T00:58:55.087Z,17.16
2023-02-02T00:59:55.676Z,17.22
2023-02-02T01:00:56.288Z,17.19
2023-02-02T01:01:56.930Z,17.19
2023-02-02T01:02:57.523Z,17.20
2023-02-02T01:03:58.114Z,17.22
2023-02-02T01:04:58.707Z,17.15
2023-02-02T01:06:15.875Z,17.16
2023-02-02T01:07:16.472Z,17.16
2023-02-02T01:08:17.074Z,17.15
2023-02-02T01:09:17.671Z,17.01
2023-02-02T01:10:18.332Z,17.01
2023-02-02T01:11:18.927Z,17.08
2023-02-02T01:12:19.527Z,17.15
2023-02-02T01:13:20.128Z,17.11
2023-02-02T01:14:20.720Z,17.04
2023-02-02T01:15:21.493Z,17.08
2023-02-02T01:16:21.992Z,17.06
2023-02-02T01:17:22.570Z,17.05
2023-02-02T01:18:23.164Z,17.04
2023-02-02T01:19:23.756Z,17.08
2023-02-02T01:20:24.350Z,17.11
2023-02-02T01:21:24.985Z,17.08
2023-02-02T01:22:25.623Z,17.04
2023-02-02T01:23:26.217Z,17.05
2023-02-02T01:24:26.824Z,17.04
2023-02-02T01:25:27.416Z,16.99
2023-02-02T01:26:28.056Z,17.06
2023-02-02T01:27:28.654Z,17.02
2023-02-02T01:28:29.322Z,17.05
2023-02-02T01:29:29.913Z,16.99
2023-02-02T01:30:30.508Z,16.99
2023-02-02T01:31:31.144Z,17.02
2023-02-02T01:32:31.873Z,16.99
2023-02-02T01:33:32.475Z,16.99
2023-02-02T01:34:33.069Z,17.01
2023-02-02T01:35:33.668Z,16.99
2023-02-02T01:36:34.261Z,16.94
2023-02-02T01:37:34.878Z,16.97
2023-02-02T01:38:35.565Z,16.90
2023-02-02T01:39:36.167Z,16.94
2023-02-02T01:40:36.757Z,16.91
2023-02-02T01:41:38.203Z,16.94
2023-02-02T01:42:38.848Z,16.90
2023-02-02T01:43:39.511Z,16.93
2023-02-02T01:44:40.106Z,16.91
2023-02-02T01:45:41.574Z,16.87
2023-02-02T01:46:42.231Z,16.89
2023-02-02T01:47:42.829Z,16.90
2023-02-02T01:48:43.423Z,16.94
2023-02-02T01:49:44.017Z,16.96
2023-02-02T01:50:44.621Z,16.97
2023-02-02T01:51:45.285Z,16.94
2023-02-02T01:52:45.895Z,16.94
2023-02-02T01:53:46.495Z,16.93
2023-02-02T01:54:47.092Z,16.90
2023-02-02T01:55:47.694Z,16.93
2023-02-02T01:56:48.293Z,16.93
2023-02-02T01:57:48.969Z,16.96
2023-02-02T01:58:49.622Z,16.93
2023-02-02T01:59:50.210Z,16.94
2023-02-02T02:00:50.818Z,16.93
2023-02-02T02:01:51.400Z,16.96
2023-02-02T02:02:52.003Z,16.91
2023-02-02T02:03:52.675Z,16.96
2023-02-02T02:04:53.279Z,16.93
2023-02-02T02:05:53.908Z,16.89
2023-02-02T02:06:54.498Z,17.02
2023-02-02T02:07:55.076Z,16.96
2023-02-02T02:08:55.675Z,16.93
2023-02-02T02:09:56.263Z,16.94
2023-02-02T02:10:56.863Z,16.93
2023-02-02T02:11:57.456Z,16.97
2023-02-02T02:12:58.049Z,16.94
2023-02-02T02:13:58.753Z,16.86
2023-02-02T02:14:59.346Z,16.81
2023-02-02T02:16:25.502Z,16.86
2023-02-02T02:17:26.146Z,16.83
2023-02-02T02:18:26.812Z,16.87
2023-02-02T02:19:27.397Z,16.91
2023-02-02T02:20:27.997Z,16.84
2023-02-02T02:21:28.592Z,16.79
2023-02-02T02:22:45.823Z,16.79
2023-02-02T02:23:46.498Z,16.89
2023-02-02T02:24:47.098Z,16.90
2023-02-02T02:25:47.702Z,16.87
2023-02-02T02:26:48.401Z,16.81
2023-02-02T02:27:49.039Z,16.89
2023-02-02T02:28:49.632Z,16.89
2023-02-02T02:29:50.230Z,16.93
2023-02-02T02:30:50.971Z,16.76
2023-02-02T02:31:51.622Z,16.87
2023-02-02T02:32:52.249Z,16.79
2023-02-02T02:33:52.848Z,16.81
2023-02-02T02:34:54.294Z,16.84
2023-02-02T02:35:54.888Z,16.83
2023-02-02T02:36:55.490Z,16.84
2023-02-02T02:37:56.081Z,16.86
2023-02-02T02:38:56.672Z,16.72
2023-02-02T02:39:57.274Z,16.84
2023-02-02T02:40:57.865Z,16.83
2023-02-02T02:41:58.460Z,16.71
2023-02-02T02:42:59.864Z,16.78
2023-02-02T02:44:00.460Z,16.84
2023-02-02T02:45:01.076Z,16.79
2023-02-02T02:46:01.703Z,16.81
2023-02-02T02:47:02.294Z,16.75
2023-02-02T02:48:02.949Z,16.81
2023-02-02T02:49:03.541Z,16.76
2023-02-02T02:50:04.126Z,16.86
2023-02-02T02:51:04.716Z,16.78
2023-02-02T02:52:05.460Z,16.86
2023-02-02T02:53:06.071Z,16.75
2023-02-02T02:54:06.669Z,16.79
2023-02-02T02:55:07.302Z,16.72
2023-02-02T02:56:07.903Z,16.81
2023-02-02T02:57:08.505Z,16.79
2023-02-02T02:58:09.095Z,16.68
2023-02-02T02:59:09.695Z,16.75
2023-02-02T03:00:10.284Z,16.81
2023-02-02T03:01:10.902Z,16.72
2023-02-02T03:02:11.501Z,16.78
2023-02-02T03:03:12.167Z,16.74
2023-02-02T03:04:12.759Z,16.74
2023-02-02T03:05:13.398Z,16.78
2023-02-02T03:06:13.996Z,16.68
2023-02-02T03:07:14.685Z,16.68
2023-02-02T03:08:15.279Z,16.71
2023-02-02T03:09:15.870Z,16.72
2023-02-02T03:10:16.466Z,16.69
2023-02-02T03:11:17.061Z,16.72
2023-02-02T03:12:17.724Z,16.71
2023-02-02T03:13:18.324Z,16.69
2023-02-02T03:14:18.927Z,16.71
2023-02-02T03:15:19.529Z,16.79
2023-02-02T03:16:20.198Z,16.74
2023-02-02T03:17:20.796Z,16.69
2023-02-02T03:18:21.396Z,16.69
2023-02-02T03:19:21.989Z,16.71
2023-02-02T03:20:22.587Z,16.72
2023-02-02T03:21:23.248Z,16.74
2023-02-02T03:22:23.839Z,16.68
2023-02-02T03:23:24.434Z,16.76
2023-02-02T03:24:25.090Z,16.72
2023-02-02T03:25:25.964Z,16.60
2023-02-02T03:26:26.727Z,16.61
2023-02-02T03:27:27.388Z,16.65
2023-02-02T03:28:27.990Z,16.65
2023-02-02T03:29:28.590Z,16.65
2023-02-02T03:30:29.214Z,16.60
2023-02-02T03:31:29.890Z,16.64
2023-02-02T03:32:30.514Z,16.60
2023-02-02T03:33:31.112Z,16.65
2023-02-02T03:34:31.705Z,16.66
2023-02-02T03:35:32.310Z,16.64
2023-02-02T03:36:32.972Z,16.65
2023-02-02T03:37:33.612Z,16.56
2023-02-02T03:38:34.207Z,16.66
2023-02-02T03:39:34.861Z,16.64
2023-02-02T03:40:35.455Z,16.58
2023-02-02T03:41:36.055Z,16.57
2023-02-02T03:42:36.646Z,16.64
2023-02-02T03:43:37.240Z,16.60
2023-02-02T03:44:37.833Z,16.57
2023-02-02T03:45:38.498Z,16.56
2023-02-02T03:46:39.109Z,16.60
2023-02-02T03:47:39.690Z,16.57
2023-02-02T03:48:40.282Z,16.60
2023-02-02T03:49:40.871Z,16.57
2023-02-02T03:50:41.482Z,16.56
2023-02-02T03:51:42.138Z,16.56
2023-02-02T03:52:42.786Z,16.64
2023-02-02T03:53:43.431Z,16.49
2023-02-02T03:54:44.036Z,16.57
2023-02-02T03:55:44.625Z,16.50
2023-02-02T03:56:45.218Z,16.47
2023-02-02T03:57:45.870Z,16.60
2023-02-02T03:58:46.479Z,16.47
2023-02-02T03:59:47.068Z,16.42
2023-02-02T04:00:47.658Z,16.47
2023-02-02T04:01:48.438Z,16.46
2023-02-02T04:02:49.095Z,16.49
2023-02-02T04:03:49.683Z,16.49
2023-02-02T04:04:50.281Z,16.42
2023-02-02T04:05:50.872Z,16.49
2023-02-02T04:06:51.465Z,16.43
2023-02-02T04:07:52.067Z,16.49
2023-02-02T04:08:52.669Z,16.43
2023-02-02T04:09:53.282Z,16.47
2023-02-02T04:10:53.916Z,16.43
2023-02-02T04:11:54.523Z,16.51
2023-02-02T04:12:55.211Z,16.42
2023-02-02T04:13:55.815Z,16.47
2023-02-02T04:14:56.404Z,16.49
2023-02-02T04:15:57.024Z,16.43
2023-02-02T04:16:58.407Z,16.43
2023-02-02T04:17:59.872Z,16.42
2023-02-02T04:19:00.472Z,16.42
2023-02-02T04:20:01.063Z,16.43
2023-02-02T04:21:01.666Z,16.41
2023-02-02T04:22:02.245Z,16.41
2023-02-02T04:23:02.846Z,16.43
2023-02-02T04:24:03.446Z,16.46
2023-02-02T04:25:04.055Z,16.38
2023-02-02T04:26:04.668Z,16.49
2023-02-02T04:27:05.257Z,16.47
2023-02-02T04:28:05.858Z,16.41
2023-02-02T04:29:06.451Z,16.38
2023-02-02T04:30:07.052Z,16.35
2023-02-02T04:31:07.796Z,16.39
2023-02-02T04:32:08.460Z,16.35
2023-02-02T04:33:09.048Z,16.43
2023-02-02T04:34:09.636Z,16.39
2023-02-02T04:35:10.229Z,16.42
2023-02-02T04:36:10.837Z,16.38
2023-02-02T04:37:11.432Z,16.41
2023-02-02T04:38:12.105Z,16.36
2023-02-02T04:39:12.712Z,16.31
2023-02-02T04:40:13.301Z,16.39
2023-02-02T04:41:13.902Z,16.38
2023-02-02T04:42:14.508Z,16.38
2023-02-02T04:43:15.257Z,16.33
2023-02-02T04:44:15.846Z,16.36
2023-02-02T04:45:16.446Z,16.35
2023-02-02T04:46:17.046Z,16.41
2023-02-02T04:47:17.645Z,16.39
2023-02-02T04:48:18.237Z,16.36
2023-02-02T04:49:18.837Z,16.32
2023-02-02T04:50:19.423Z,16.36
2023-02-02T04:51:20.823Z,16.33
2023-02-02T04:52:21.455Z,16.35
2023-02-02T04:53:22.046Z,16.35
2023-02-02T04:54:22.644Z,16.41
2023-02-02T04:55:23.560Z,16.36
2023-02-02T04:56:24.419Z,16.36
2023-02-02T04:57:25.009Z,16.32
2023-02-02T04:58:25.612Z,16.35
2023-02-02T04:59:26.204Z,16.33
2023-02-02T05:00:26.797Z,16.33
2023-02-02T05:01:27.531Z,16.33
2023-02-02T05:02:28.139Z,16.36
2023-02-02T05:03:28.731Z,16.32
2023-02-02T05:04:29.379Z,16.29
2023-02-02T05:05:30.340Z,16.33
2023-02-02T05:06:30.986Z,16.36
2023-02-02T05:07:31.575Z,16.39
2023-02-02T05:08:32.172Z,16.33
2023-02-02T05:09:32.764Z,16.31
2023-02-02T05:10:33.360Z,16.35
2023-02-02T05:11:34.814Z,16.32
2023-02-02T05:12:35.405Z,16.26
2023-02-02T05:13:35.999Z,16.24
2023-02-02T05:14:37.453Z,16.29
2023-02-02T05:15:38.051Z,16.36
2023-02-02T05:16:38.688Z,16.31
2023-02-02T05:17:39.283Z,16.32
2023-02-02T05:18:39.945Z,16.31
2023-02-02T05:19:40.537Z,16.26
2023-02-02T05:20:41.129Z,16.21
2023-02-02T05:21:41.755Z,16.20
2023-02-02T05:22:42.348Z,16.24
2023-02-02T05:23:43.009Z,16.33
2023-02-02T05:24:43.672Z,16.24
2023-02-02T05:25:44.261Z,16.31
2023-02-02T05:26:45.045Z,16.31
2023-02-02T05:27:45.532Z,16.31
2023-02-02T05:28:46.205Z,16.21
2023-02-02T05:29:46.794Z,16.21
2023-02-02T05:30:47.406Z,16.32
2023-02-02T05:31:48.106Z,16.21
2023-02-02T05:32:48.719Z,16.21
2023-02-02T05:33:49.308Z,16.20
2023-02-02T05:34:49.898Z,16.15
2023-02-02T05:35:50.490Z,16.23
2023-02-02T05:36:51.091Z,16.21
2023-02-02T05:37:51.692Z,16.20
2023-02-02T05:38:52.283Z,16.26
2023-02-02T05:39:52.874Z,16.29
2023-02-02T05:40:53.464Z,16.26
2023-02-02T05:41:54.058Z,16.15
2023-02-02T05:42:54.660Z,16.20
2023-02-02T05:43:55.245Z,16.12
2023-02-02T05:44:55.837Z,16.21
2023-02-02T05:45:56.505Z,16.23
2023-02-02T05:46:57.088Z,16.20
2023-02-02T05:47:57.689Z,16.17
2023-02-02T05:48:58.292Z,16.26
2023-02-02T05:49:58.895Z,16.16
2023-02-02T05:50:59.574Z,16.13
2023-02-02T05:52:00.165Z,16.16
2023-02-02T05:53:00.763Z,16.21
2023-02-02T05:54:01.357Z,16.20
2023-02-02T05:55:01.953Z,16.24
2023-02-02T05:56:02.592Z,16.17
2023-02-02T05:57:03.185Z,16.24
2023-02-02T05:58:03.785Z,16.26
2023-02-02T05:59:04.447Z,16.20
2023-02-02T06:00:05.043Z,16.28
2023-02-02T06:01:05.646Z,16.21
2023-02-02T06:02:06.247Z,16.17
2023-02-02T06:03:06.936Z,16.20
2023-02-02T06:04:07.589Z,16.13
2023-02-02T06:05:08.180Z,16.12
2023-02-02T06:06:08.781Z,16.15
2023-02-02T06:07:09.391Z,16.21
2023-02-02T06:08:10.122Z,16.10
2023-02-02T06:09:10.767Z,16.21
2023-02-02T06:10:11.400Z,16.21
2023-02-02T06:11:12.042Z,16.16
2023-02-02T06:12:12.765Z,16.16
2023-02-02T06:13:13.350Z,16.16
2023-02-02T06:14:13.945Z,16.16
2023-02-02T06:15:14.677Z,16.20
2023-02-02T06:16:15.342Z,16.17
2023-02-02T06:17:15.957Z,16.10
2023-02-02T06:18:16.607Z,16.16
2023-02-02T06:19:17.209Z,16.08
2023-02-02T06:20:17.815Z,16.08
2023-02-02T06:21:18.410Z,16.17
2023-02-02T06:22:18.998Z,16.13
2023-02-02T06:23:19.590Z,16.09
2023-02-02T06:24:20.185Z,16.05
2023-02-02T06:25:20.853Z,16.05
2023-02-02T06:26:21.558Z,16.08
2023-02-02T06:27:22.175Z,16.05
2023-02-02T06:28:23.618Z,16.09
2023-02-02T06:29:24.221Z,16.12
2023-02-02T06:30:25.682Z,16.04
2023-02-02T06:31:26.549Z,16.12
2023-02-02T06:32:27.368Z,16.04
2023-02-02T06:33:28.011Z,16.04
2023-02-02T06:34:28.671Z,16.13
2023-02-02T06:35:29.262Z,16.05
2023-02-02T06:36:29.859Z,16.10
2023-02-02T06:37:30.876Z,16.08
2023-02-02T06:38:31.487Z,16.02
2023-02-02T06:39:32.078Z,16.10
2023-02-02T06:40:32.670Z,16.08
2023-02-02T06:41:33.288Z,16.05
2023-02-02T06:42:33.866Z,16.04
2023-02-02T06:43:34.470Z,16.08
2023-02-02T06:44:35.067Z,16.05
2023-02-02T06:45:35.662Z,16.09
2023-02-02T06:46:36.309Z,16.05
2023-02-02T06:47:36.913Z,16.09
2023-02-02T06:48:37.535Z,16.04
2023-02-02T06:49:38.119Z,16.05
2023-02-02T06:50:38.723Z,16.08
2023-02-02T06:51:39.311Z,16.09
2023-02-02T06:52:39.913Z,16.09
2023-02-02T06:53:40.521Z,16.12
2023-02-02T06:54:41.097Z,16.08
2023-02-02T06:55:41.700Z,16.02
2023-02-02T06:56:42.295Z,16.09
2023-02-02T06:57:42.914Z,16.05
2023-02-02T06:58:43.509Z,16.08
2023-02-02T06:59:44.096Z,16.04
2023-02-02T07:00:44.697Z,16.08
2023-02-02T07:01:45.326Z,16.05
2023-02-02T07:02:46.036Z,16.08
2023-02-02T07:03:46.699Z,16.01
2023-02-02T07:04:47.330Z,16.04
2023-02-02T07:05:47.935Z,16.01
2023-02-02T07:06:48.524Z,16.04
2023-02-02T07:07:49.123Z,16.01
2023-02-02T07:09:02.807Z,16.04
2023-02-02T07:09:58.343Z,16.08
2023-02-02T07:11:13.447Z,16.05
2023-02-02T07:11:54.483Z,16.00
2023-02-02T07:12:55.073Z,16.05
2023-02-02T07:13:55.690Z,16.08
2023-02-02T07:14:56.287Z,15.98
2023-02-02T07:15:56.928Z,16.00
2023-02-02T07:16:57.533Z,16.02
2023-02-02T07:17:58.134Z,15.94
2023-02-02T07:18:58.724Z,15.97
2023-02-02T07:19:59.327Z,16.01
2023-02-02T07:20:59.946Z,16.00
2023-02-02T07:22:00.527Z,16.01
2023-02-02T07:23:01.125Z,16.01
2023-02-02T07:24:01.727Z,15.98
2023-02-02T07:25:02.333Z,15.98
2023-02-02T07:26:03.915Z,15.94
2023-02-02T07:27:04.510Z,15.98
2023-02-02T07:28:05.101Z,16.02
2023-02-02T07:29:05.696Z,15.97
2023-02-02T07:30:06.295Z,15.94
2023-02-02T07:31:06.986Z,15.98
2023-02-02T07:32:07.622Z,15.98
2023-02-02T07:33:08.206Z,16.01
2023-02-02T07:34:08.810Z,15.97
2023-02-02T07:35:09.456Z,15.94
2023-02-02T07:36:10.099Z,15.94
2023-02-02T07:37:10.863Z,15.94
2023-02-02T07:38:11.444Z,15.94
2023-02-02T07:39:12.298Z,15.91
2023-02-02T07:40:13.826Z,15.91
2023-02-02T07:41:14.461Z,16.00
2023-02-02T07:42:15.057Z,15.91
2023-02-02T07:43:15.668Z,15.95
2023-02-02T07:44:16.239Z,15.95
2023-02-02T07:45:27.766Z,15.94
2023-02-02T07:46:17.541Z,16.00
2023-02-02T07:47:18.211Z,15.92
2023-02-02T07:48:18.805Z,15.90
2023-02-02T07:49:19.405Z,15.94
2023-02-02T07:50:19.996Z,15.97
2023-02-02T07:51:20.589Z,15.97
2023-02-02T07:52:21.186Z,15.97
2023-02-02T07:53:21.781Z,15.95
2023-02-02T07:54:22.392Z,15.97
2023-02-02T07:55:22.981Z,15.92
2023-02-02T07:56:23.630Z,15.95
2023-02-02T07:57:24.228Z,15.95
2023-02-02T07:58:24.828Z,15.90
2023-02-02T07:59:25.422Z,15.97
2023-02-02T08:00:26.053Z,15.92
2023-02-02T08:01:26.820Z,16.02
2023-02-02T08:02:27.499Z,15.94
2023-02-02T08:03:28.082Z,15.98
2023-02-02T08:04:28.690Z,15.90
2023-02-02T08:05:29.342Z,15.86
2023-02-02T08:06:29.947Z,15.98
2023-02-02T08:07:30.567Z,15.88
2023-02-02T08:08:31.157Z,15.92
2023-02-02T08:09:31.747Z,15.92
2023-02-02T08:10:32.352Z,15.90
2023-02-02T08:11:32.952Z,15.88
2023-02-02T08:12:33.536Z,15.86
2023-02-02T08:13:34.197Z,15.94
2023-02-02T08:14:34.852Z,15.90
2023-02-02T08:15:35.442Z,15.84
2023-02-02T08:16:36.162Z,15.92
2023-02-02T08:17:36.767Z,15.94
2023-02-02T08:18:37.377Z,15.98
2023-02-02T08:19:37.971Z,15.90
2023-02-02T08:20:38.575Z,15.95
2023-02-02T08:21:39.166Z,15.90
2023-02-02T08:22:39.766Z,15.86
2023-02-02T08:23:40.388Z,15.91
2023-02-02T08:24:41.037Z,15.95
2023-02-02T08:25:41.627Z,15.91
2023-02-02T08:26:42.261Z,15.88
2023-02-02T08:27:42.857Z,15.92
2023-02-02T08:28:43.453Z,15.94
2023-02-02T08:29:44.061Z,15.95
2023-02-02T08:30:44.702Z,15.88
2023-02-02T08:31:45.366Z,15.90
2023-02-02T08:32:46.001Z,15.92
2023-02-02T08:33:46.657Z,15.86
2023-02-02T08:34:47.247Z,15.83
2023-02-02T08:35:47.844Z,15.88
2023-02-02T08:36:49.245Z,15.86
2023-02-02T08:37:49.894Z,15.86
2023-02-02T08:38:50.497Z,15.86
2023-02-02T08:39:51.109Z,15.88
2023-02-02T08:40:51.707Z,15.84
2023-02-02T08:41:52.301Z,15.88
2023-02-02T08:42:52.896Z,15.86
2023-02-02T08:43:54.162Z,15.90
2023-02-02T08:46:00.273Z,15.88
2023-02-02T08:46:07.790Z,15.88
2023-02-02T08:46:59.216Z,15.84
2023-02-02T08:48:11.243Z,15.90
2023-02-02T08:49:01.501Z,15.88
2023-02-02T08:50:02.102Z,15.90
2023-02-02T08:51:02.778Z,15.86
2023-02-02T08:52:03.371Z,15.90
2023-02-02T08:53:03.977Z,15.88
2023-02-02T08:54:04.575Z,16.00
2023-02-02T08:55:05.164Z,15.92
2023-02-02T08:56:05.755Z,15.98
2023-02-02T08:57:06.358Z,15.95
2023-02-02T08:58:06.967Z,15.92
2023-02-02T08:59:07.558Z,15.98
2023-02-02T09:00:08.160Z,15.94
2023-02-02T09:01:08.795Z,16.01
2023-02-02T09:02:09.442Z,15.95
2023-02-02T09:03:10.045Z,15.88
2023-02-02T09:04:10.624Z,15.92
2023-02-02T09:05:11.219Z,15.91
2023-02-02T09:06:12.615Z,15.90
2023-02-02T09:07:13.214Z,15.90
2023-02-02T09:08:13.835Z,15.88
2023-02-02T09:09:14.488Z,15.91
2023-02-02T09:10:15.078Z,15.83
2023-02-02T09:11:15.683Z,15.86
2023-02-02T09:12:16.275Z,15.90
2023-02-02T09:13:16.876Z,15.86
2023-02-02T09:14:17.481Z,15.86
2023-02-02T09:15:18.148Z,15.84
2023-02-02T09:16:18.761Z,15.83
2023-02-02T09:17:19.344Z,15.84
2023-02-02T09:18:20.006Z,15.86
2023-02-02T09:19:21.449Z,15.86
2023-02-02T09:20:22.056Z,15.90
2023-02-02T09:21:22.696Z,15.90
2023-02-02T09:22:23.286Z,15.84
2023-02-02T09:23:23.879Z,15.90
2023-02-02T09:24:24.476Z,15.90
2023-02-02T09:25:25.497Z,16.02
2023-02-02T09:26:26.448Z,15.90
2023-02-02T09:27:26.956Z,15.95
2023-02-02T09:28:27.549Z,15.95
2023-02-02T09:29:28.150Z,15.94
2023-02-02T09:30:28.762Z,15.97
2023-02-02T09:31:29.361Z,15.91
2023-02-02T09:32:29.968Z,15.98
2023-02-02T09:33:30.565Z,15.94
2023-02-02T09:34:31.212Z,15.95
2023-02-02T09:35:31.810Z,15.95
2023-02-02T09:36:32.413Z,15.97
2023-02-02T09:37:32.998Z,16.04
2023-02-02T09:38:33.623Z,15.97
2023-02-02T09:39:34.211Z,15.98
2023-02-02T09:40:34.803Z,15.95
2023-02-02T09:41:35.403Z,15.95
2023-02-02T09:42:36.014Z,15.95
2023-02-02T09:43:36.653Z,16.02
2023-02-02T09:44:37.253Z,15.92
2023-02-02T09:45:37.922Z,15.91
2023-02-02T09:46:38.584Z,15.98
2023-02-02T09:47:39.281Z,15.98
2023-02-02T09:48:39.942Z,15.97
2023-02-02T09:49:40.531Z,15.95
2023-02-02T09:50:41.121Z,15.94
2023-02-02T09:51:41.798Z,15.95
2023-02-02T09:52:42.478Z,15.98
2023-02-02T09:53:54.596Z,16.00
2023-02-02T09:54:44.769Z,15.98
2023-02-02T09:55:45.362Z,15.94
2023-02-02T09:56:45.966Z,15.92
2023-02-02T09:57:46.677Z,15.92
2023-02-02T09:58:47.274Z,15.97
2023-02-02T09:59:47.867Z,15.92
2023-02-02T10:00:48.474Z,15.97
2023-02-02T10:01:49.074Z,15.98
2023-02-02T10:02:49.743Z,15.98
2023-02-02T10:03:50.362Z,15.95
2023-02-02T10:04:50.947Z,16.05
2023-02-02T10:05:51.548Z,15.97
2023-02-02T10:06:52.152Z,16.02
2023-02-02T10:07:52.748Z,16.04
2023-02-02T10:08:53.355Z,16.01
2023-02-02T10:09:54.028Z,15.97
2023-02-02T10:10:54.617Z,16.01
2023-02-02T10:11:56.032Z,16.00
2023-02-02T10:12:56.673Z,15.98
2023-02-02T10:13:57.263Z,16.01
2023-02-02T10:14:57.913Z,15.98
2023-02-02T10:16:01.183Z,16.00
2023-02-02T10:17:00.155Z,16.00
2023-02-02T10:18:00.749Z,15.98
2023-02-02T10:19:01.342Z,16.01
2023-02-02T10:20:01.943Z,16.05
2023-02-02T10:21:02.546Z,16.05
2023-02-02T10:22:03.213Z,15.98
2023-02-02T10:23:03.826Z,16.04
2023-02-02T10:24:04.402Z,16.02
2023-02-02T10:25:04.991Z,16.08
2023-02-02T10:26:05.588Z,16.01
2023-02-02T10:27:06.221Z,16.04
2023-02-02T10:28:06.998Z,16.02
2023-02-02T10:29:07.582Z,16.01
2023-02-02T10:30:08.170Z,16.04
2023-02-02T10:31:08.908Z,16.08
2023-02-02T10:32:09.617Z,16.04
2023-02-02T10:33:10.213Z,16.02
2023-02-02T10:34:10.811Z,16.02
2023-02-02T10:35:14.176Z,16.09
2023-02-02T10:36:13.063Z,15.97
2023-02-02T10:37:13.668Z,16.04
2023-02-02T10:38:14.340Z,16.04
2023-02-02T10:39:14.932Z,16.04
2023-02-02T10:40:15.529Z,16.05
2023-02-02T10:41:16.194Z,16.05
2023-02-02T10:42:16.784Z,16.05
2023-02-02T10:43:17.376Z,16.12
2023-02-02T10:44:17.970Z,16.04
2023-02-02T10:45:18.587Z,16.05
2023-02-02T10:46:19.278Z,16.09
2023-02-02T10:47:19.914Z,16.08
2023-02-02T10:48:20.785Z,16.05
2023-02-02T10:49:21.400Z,16.08
2023-02-02T10:50:22.013Z,16.05
2023-02-02T10:51:22.639Z,16.09
2023-02-02T10:52:23.229Z,16.09
2023-02-02T10:53:23.844Z,16.09
2023-02-02T10:54:25.328Z,16.08
2023-02-02T10:55:25.921Z,16.09
2023-02-02T10:56:26.510Z,16.09
2023-02-02T10:57:27.103Z,16.01
2023-02-02T10:58:27.748Z,16.09
2023-02-02T10:59:28.354Z,16.04
2023-02-02T11:00:29.262Z,16.09
2023-02-02T11:01:30.196Z,16.08
2023-02-02T11:02:30.815Z,16.08
2023-02-02T11:03:31.409Z,16.04
2023-02-02T11:04:32.020Z,16.08
2023-02-02T11:05:32.673Z,16.09
2023-02-02T11:06:33.261Z,16.10
2023-02-02T11:07:33.869Z,16.05
2023-02-02T11:08:34.465Z,16.09
2023-02-02T11:09:35.055Z,16.04
2023-02-02T11:10:35.648Z,16.08
2023-02-02T11:11:36.830Z,16.02
2023-02-02T11:12:37.579Z,16.04
2023-02-02T11:13:38.176Z,16.05
2023-02-02T11:14:45.224Z,16.08
2023-02-02T11:15:40.384Z,16.08
2023-02-02T11:16:44.293Z,16.10
2023-02-02T11:17:42.570Z,16.01
2023-02-02T11:18:44.202Z,16.05
2023-02-02T11:19:44.757Z,16.09
2023-02-02T11:20:45.365Z,16.05
2023-02-02T11:21:45.958Z,16.08
2023-02-02T11:22:46.554Z,16.04
2023-02-02T11:23:48.823Z,16.01
2023-02-02T11:24:48.857Z,16.05
2023-02-02T11:25:49.460Z,16.08
2023-02-02T11:26:50.117Z,16.05
2023-02-02T11:27:50.708Z,16.08
2023-02-02T11:28:51.349Z,16.05
2023-02-02T11:29:52.030Z,16.09
2023-02-02T11:30:52.909Z,16.05
2023-02-02T11:31:53.586Z,16.09
2023-02-02T11:32:54.181Z,16.04
2023-02-02T11:33:54.773Z,16.08
2023-02-02T11:34:55.368Z,16.04
2023-02-02T11:35:55.981Z,16.05
2023-02-02T11:36:56.574Z,16.05
2023-02-02T11:37:57.178Z,16.08
2023-02-02T11:38:57.772Z,16.04
2023-02-02T11:39:58.522Z,16.12
2023-02-02T11:40:59.124Z,16.04
2023-02-02T11:41:59.723Z,16.04
2023-02-02T11:43:00.335Z,16.05
2023-02-02T11:44:00.933Z,16.05
2023-02-02T11:45:01.545Z,16.09
2023-02-02T11:46:03.200Z,16.04
2023-02-02T11:47:03.719Z,16.08
2023-02-02T11:48:04.321Z,16.05
2023-02-02T11:49:04.923Z,16.08
2023-02-02T11:50:05.522Z,16.04
2023-02-02T11:51:06.893Z,16.05
2023-02-02T11:52:08.349Z,16.09
2023-02-02T11:53:08.947Z,16.05
2023-02-02T11:54:09.550Z,16.08
2023-02-02T11:55:10.311Z,16.05
2023-02-02T11:56:10.900Z,16.05
2023-02-02T11:57:11.499Z,16.02
2023-02-02T11:58:12.268Z,16.02
2023-02-02T11:59:12.846Z,16.08
2023-02-02T12:00:13.435Z,16.00
2023-02-02T12:01:14.031Z,16.01
2023-02-02T12:02:15.602Z,16.05
2023-02-02T12:03:16.189Z,16.05
2023-02-02T12:04:16.888Z,15.98
2023-02-02T12:05:17.537Z,16.05
2023-02-02T12:06:18.310Z,16.01
2023-02-02T12:07:18.946Z,15.98
2023-02-02T12:08:19.540Z,15.98
2023-02-02T12:09:20.190Z,15.94
2023-02-02T12:10:20.787Z,16.01
2023-02-02T12:11:21.376Z,16.05
2023-02-02T12:12:21.980Z,16.02
2023-02-02T12:13:22.632Z,16.09
2023-02-02T12:14:23.230Z,16.04
2023-02-02T12:15:23.875Z,16.09
2023-02-02T12:16:24.464Z,16.04
2023-02-02T12:17:25.349Z,16.09
2023-02-02T12:18:26.019Z,16.04
2023-02-02T12:19:26.622Z,16.13
2023-02-02T12:20:27.788Z,16.05
2023-02-02T12:21:27.883Z,16.04
2023-02-02T12:22:28.490Z,16.09
2023-02-02T12:23:29.141Z,16.04
2023-02-02T12:24:29.735Z,16.05
2023-02-02T12:25:30.328Z,16.10
2023-02-02T12:26:30.957Z,16.08
2023-02-02T12:27:31.564Z,16.01
2023-02-02T12:28:32.167Z,16.09
2023-02-02T12:29:32.840Z,16.04
2023-02-02T12:30:34.321Z,16.05
2023-02-02T12:31:35.817Z,16.04
2023-02-02T12:32:36.467Z,16.01
2023-02-02T12:33:37.174Z,16.04
2023-02-02T12:34:37.914Z,16.10
2023-02-02T12:35:38.516Z,16.04
2023-02-02T12:36:39.116Z,15.94
2023-02-02T12:37:39.735Z,16.05
2023-02-02T12:38:40.304Z,16.04
2023-02-02T12:39:40.956Z,15.95
2023-02-02T12:40:41.552Z,16.00
2023-02-02T12:41:42.142Z,16.02
2023-02-02T12:42:42.746Z,15.97
2023-02-02T12:43:43.478Z,16.01
2023-02-02T12:44:44.077Z,16.02
2023-02-02T12:45:44.792Z,16.01
2023-02-02T12:46:45.396Z,15.95
2023-02-02T12:47:46.061Z,15.91
2023-02-02T12:48:46.658Z,15.97
2023-02-02T12:49:47.249Z,15.92
2023-02-02T12:50:47.839Z,15.91
2023-02-02T12:51:48.440Z,15.97
2023-02-02T12:52:49.047Z,15.95
2023-02-02T12:54:33.571Z,15.94
2023-02-02T12:54:56.218Z,15.98
2023-02-02T12:55:52.839Z,15.91
2023-02-02T12:56:54.414Z,15.98
2023-02-02T12:57:55.015Z,15.91
2023-02-02T12:58:55.614Z,15.98
2023-02-02T12:59:56.209Z,15.91
2023-02-02T13:00:56.840Z,15.95
2023-02-02T13:01:57.513Z,15.97
2023-02-02T13:02:58.090Z,15.98
2023-02-02T13:03:58.761Z,15.98